createdAt,value
2023-01-25T00:02:08.604Z,12.47
2023-01-25T00:04:35.528Z,12.23
2023-01-25T00:07:02.301Z,12.00
2023-01-25T00:09:29.010Z,12.90
2023-01-25T00:11:57.968Z,12.67
2023-01-25T00:14:24.945Z,12.57
2023-01-25T00:16:51.956Z,13.50
2023-01-25T00:19:18.996Z,13.40
2023-01-25T00:21:45.723Z,13.83
2023-01-25T00:24:14.319Z,12.20
2023-01-25T00:26:44.070Z,13.07
2023-01-25T00:29:14.618Z,12.90
2023-01-25T00:31:49.304Z,13.57
2023-01-25T00:34:24.874Z,13.83
2023-01-25T00:37:01.164Z,14.23
2023-01-25T00:39:28.660Z,13.13
2023-01-25T00:41:55.862Z,13.93
2023-01-25T00:44:22.592Z,12.67
2023-01-25T00:46:49.516Z,13.47
2023-01-25T00:49:22.112Z,13.67
2023-01-25T00:51:49.736Z,13.37
2023-01-25T00:54:16.913Z,15.33
2023-01-25T00:56:43.830Z,15.90
2023-01-25T00:59:11.174Z,14.37
2023-01-25T01:01:38.329Z,13.53
2023-01-25T01:04:06.581Z,14.10
2023-01-25T01:06:36.310Z,14.07
2023-01-25T01:09:04.224Z,13.93
2023-01-25T01:11:31.775Z,14.23
2023-01-25T01:13:59.636Z,15.30
2023-01-25T01:16:27.345Z,14.50
2023-01-25T01:18:54.409Z,15.10
2023-01-25T01:21:21.792Z,15.50
2023-01-25T01:23:48.670Z,15.07
2023-01-25T01:26:19.277Z,15.33
2023-01-25T01:28:46.358Z,14.80
2023-01-25T01:31:19.245Z,15.97
2023-01-25T01:33:50.290Z,15.73
2023-01-25T01:36:18.855Z,15.63
2023-01-25T01:38:46.065Z,16.27
2023-01-25T01:41:13.707Z,14.27
2023-01-25T01:43:40.679Z,14.27
2023-01-25T01:46:33.388Z,16.20
2023-01-25T01:49:21.200Z,15.93
2023-01-25T01:51:53.327Z,16.37
2023-01-25T01:54:37.532Z,16.27
2023-01-25T01:57:14.901Z,16.87
2023-01-25T01:59:50.003Z,16.53
2023-01-25T02:02:17.051Z,14.60
2023-01-25T02:04:46.704Z,16.20
2023-01-25T02:07:35.114Z,17.13
2023-01-25T02:10:06.602Z,16.67
2023-01-25T02:12:34.931Z,16.23
2023-01-25T02:15:01.954Z,16.70
2023-01-25T02:17:35.656Z,17.63
2023-01-25T02:20:12.873Z,17.70
2023-01-25T02:22:47.594Z,16.57
2023-01-25T02:25:16.506Z,17.40
2023-01-25T02:28:09.986Z,17.57
2023-01-25T02:30:36.705Z,19.77
2023-01-25T02:33:03.525Z,18.47
2023-01-25T02:35:46.228Z,18.87
2023-01-25T02:38:15.896Z,17.83
2023-01-25T02:40:57.658Z,18.17
2023-01-25T02:43:28.176Z,19.63
2023-01-25T02:46:06.256Z,19.13
2023-01-25T02:48:33.021Z,17.50
2023-01-25T02:50:59.711Z,19.87
2023-01-25T02:53:27.515Z,19.23
2023-01-25T02:55:54.230Z,20.30
2023-01-25T02:58:21.039Z,20.43
2023-01-25T03:00:48.033Z,19.93
2023-01-25T03:03:14.810Z,21.80
2023-01-25T03:05:41.488Z,19.57
2023-01-25T03:08:08.236Z,20.30
2023-01-25T03:10:35.010Z,20.10
2023-01-25T03:13:01.769Z,19.00
2023-01-25T03:15:28.452Z,19.23
2023-01-25T03:17:56.784Z,20.73
2023-01-25T03:20:23.509Z,20.50
2023-01-25T03:22:50.313Z,19.97
2023-01-25T03:25:17.120Z,21.27
2023-01-25T03:27:43.795Z,21.77
2023-01-25T03:30:11.084Z,19.80
2023-01-25T03:32:38.239Z,19.63
2023-01-25T03:35:06.410Z,21.63
2023-01-25T03:37:34.206Z,19.73
2023-01-25T03:40:01.267Z,20.90
2023-01-25T03:42:28.023Z,20.90
2023-01-25T03:44:54.720Z,19.07
2023-01-25T03:47:21.492Z,20.80
2023-01-25T03:49:48.211Z,21.80
2023-01-25T03:52:14.906Z,19.47
2023-01-25T03:54:41.907Z,20.87
2023-01-25T03:57:08.668Z,20.13
2023-01-25T03:59:35.416Z,21.33
2023-01-25T04:02:03.043Z,21.70
2023-01-25T04:04:29.940Z,21.33
2023-01-25T04:06:56.684Z,20.30
2023-01-25T04:09:23.500Z,21.73
2023-01-25T04:11:51.339Z,21.60
2023-01-25T04:14:25.526Z,21.83
2023-01-25T04:16:58.599Z,22.57
2023-01-25T04:19:25.296Z,22.30
2023-01-25T04:21:52.016Z,21.63
2023-01-25T04:24:18.826Z,22.77
2023-01-25T04:26:45.550Z,22.60
2023-01-25T04:29:12.983Z,22.73
2023-01-25T04:31:39.802Z,22.73
2023-01-25T04:34:06.742Z,21.73
2023-01-25T04:36:33.452Z,22.07
2023-01-25T04:39:00.219Z,25.40
2023-01-25T04:41:29.148Z,23.17
2023-01-25T04:43:55.945Z,22.90
2023-01-25T04:46:22.653Z,23.40
2023-01-25T04:48:49.360Z,25.03
2023-01-25T04:51:16.069Z,24.60
2023-01-25T04:53:42.777Z,25.10
2023-01-25T04:56:09.531Z,23.27
2023-01-25T04:58:36.330Z,23.13
2023-01-25T05:01:03.428Z,25.47
2023-01-25T05:03:30.391Z,24.43
2023-01-25T05:05:57.153Z,26.00
2023-01-25T05:08:24.073Z,25.07
2023-01-25T05:10:50.792Z,24.37
2023-01-25T05:13:17.561Z,25.03
2023-01-25T05:15:44.302Z,26.17
2023-01-25T05:18:11.097Z,24.00
2023-01-25T05:20:37.869Z,23.40
2023-01-25T05:23:04.574Z,24.27
2023-01-25T05:25:49.826Z,25.37
2023-01-25T05:28:16.573Z,25.00
2023-01-25T05:30:43.282Z,25.03
2023-01-25T05:33:10.038Z,24.97
2023-01-25T05:35:36.746Z,26.57
2023-01-25T05:38:03.772Z,24.73
2023-01-25T05:40:30.553Z,25.53
2023-01-25T05:42:58.681Z,27.07
2023-01-25T05:45:26.108Z,27.00
2023-01-25T05:47:57.669Z,25.00
2023-01-25T05:50:25.545Z,26.37
2023-01-25T05:52:52.229Z,24.50
2023-01-25T05:55:19.013Z,26.27
2023-01-25T05:57:45.823Z,25.27
2023-01-25T06:00:13.017Z,29.27
2023-01-25T06:02:39.999Z,30.20
2023-01-25T06:05:07.595Z,30.97
2023-01-25T06:07:36.361Z,30.20
2023-01-25T06:10:05.014Z,30.73
2023-01-25T06:12:33.154Z,30.97
2023-01-25T06:14:59.841Z,32.17
2023-01-25T06:17:26.729Z,30.20
2023-01-25T06:19:53.402Z,31.73
2023-01-25T06:22:20.135Z,33.63
2023-01-25T06:24:46.851Z,30.70
2023-01-25T06:27:13.584Z,31.27
2023-01-25T06:29:40.355Z,31.00
2023-01-25T06:32:07.145Z,32.17
2023-01-25T06:34:33.913Z,31.53
2023-01-25T06:37:00.635Z,31.03
2023-01-25T06:39:27.411Z,31.70
2023-01-25T06:41:55.044Z,34.27
2023-01-25T06:44:21.920Z,33.83
2023-01-25T06:46:48.752Z,32.00
2023-01-25T06:49:15.576Z,30.57
2023-01-25T06:51:42.326Z,33.43
2023-01-25T06:54:09.026Z,33.23
2023-01-25T06:56:36.392Z,34.40
2023-01-25T06:59:03.293Z,31.47
2023-01-25T07:01:30.743Z,32.57
2023-01-25T07:03:59.292Z,32.13
2023-01-25T07:06:32.151Z,32.70
2023-01-25T07:09:06.199Z,33.50
2023-01-25T07:11:33.164Z,33.80
2023-01-25T07:14:00.403Z,33.93
2023-01-25T07:16:27.595Z,33.87
2023-01-25T07:18:55.118Z,33.00
2023-01-25T07:21:23.614Z,32.00
2023-01-25T07:23:51.524Z,33.43
2023-01-25T07:26:21.237Z,33.80
2023-01-25T07:28:48.880Z,32.53
2023-01-25T07:31:16.985Z,33.53
2023-01-25T07:33:44.007Z,32.87
2023-01-25T07:36:11.579Z,34.43
2023-01-25T07:38:38.412Z,31.67
2023-01-25T07:41:05.670Z,33.83
2023-01-25T07:43:32.569Z,33.57
2023-01-25T07:46:13.067Z,31.07
2023-01-25T07:48:41.250Z,31.97
2023-01-25T07:51:13.035Z,34.63
2023-01-25T07:53:41.491Z,32.30
2023-01-25T07:56:09.622Z,31.93
2023-01-25T07:58:36.669Z,35.73
2023-01-25T08:01:17.936Z,32.93
2023-01-25T08:03:45.912Z,32.13
2023-01-25T08:06:13.235Z,31.67
2023-01-25T08:08:45.323Z,32.63
2023-01-25T08:11:22.263Z,32.80
2023-01-25T08:13:50.103Z,30.47
2023-01-25T08:16:21.913Z,30.57
2023-01-25T08:18:54.847Z,30.77
2023-01-25T08:21:24.297Z,31.03
2023-01-25T08:23:51.637Z,31.67
2023-01-25T08:26:18.658Z,32.07
2023-01-25T08:28:45.510Z,31.03
2023-01-25T08:31:19.085Z,30.37
2023-01-25T08:33:46.884Z,31.30
2023-01-25T08:36:15.508Z,32.37
2023-01-25T08:38:42.566Z,34.10
2023-01-25T08:41:12.388Z,31.43
2023-01-25T08:43:39.365Z,31.07
2023-01-25T08:46:07.040Z,32.20
2023-01-25T08:48:34.238Z,31.67
2023-01-25T08:51:01.020Z,30.53
2023-01-25T08:53:29.185Z,28.80
2023-01-25T08:55:55.912Z,30.13
2023-01-25T08:58:22.700Z,28.97
2023-01-25T09:00:49.918Z,27.37
2023-01-25T09:03:18.257Z,25.87
2023-01-25T09:05:45.283Z,24.30
2023-01-25T09:08:12.028Z,25.67
2023-01-25T09:10:38.802Z,27.10
2023-01-25T09:13:07.755Z,26.60
2023-01-25T09:15:35.472Z,26.57
2023-01-25T09:18:02.277Z,26.20
2023-01-25T09:20:31.707Z,25.23
2023-01-25T09:23:01.066Z,26.13
2023-01-25T09:25:27.963Z,26.63
2023-01-25T09:27:54.777Z,27.33
2023-01-25T09:30:24.673Z,25.23
2023-01-25T09:32:57.456Z,25.17
2023-01-25T09:35:24.348Z,26.50
2023-01-25T09:37:52.622Z,26.80
2023-01-25T09:40:22.293Z,27.20
2023-01-25T09:43:03.992Z,24.60
2023-01-25T09:45:32.618Z,24.80
2023-01-25T09:48:14.140Z,25.23
2023-01-25T09:51:02.094Z,24.60
2023-01-25T09:53:41.046Z,24.33
2023-01-25T09:56:17.606Z,24.90
2023-01-25T09:58:47.649Z,23.77
2023-01-25T10:01:38.561Z,25.10
2023-01-25T10:04:35.663Z,24.23
2023-01-25T10:07:22.239Z,23.67
2023-01-25T10:10:02.614Z,22.43
2023-01-25T10:12:36.763Z,24.83
2023-01-25T10:15:21.284Z,24.73
2023-01-25T10:18:21.529Z,22.80
2023-01-25T10:21:33.612Z,25.07
2023-01-25T10:24:24.853Z,25.70
2023-01-25T10:27:07.874Z,24.53
2023-01-25T10:29:37.451Z,26.20
2023-01-25T10:32:28.255Z,25.50
2023-01-25T10:34:58.286Z,25.50
2023-01-25T10:37:32.641Z,25.83
2023-01-25T10:40:22.718Z,25.40
2023-01-25T10:43:00.597Z,26.53
2023-01-25T10:45:27.331Z,27.67
2023-01-25T10:48:03.552Z,27.87
2023-01-25T10:50:41.023Z,28.03
2023-01-25T10:53:22.246Z,24.83
2023-01-25T10:56:13.232Z,25.90
2023-01-25T10:58:42.549Z,26.87
2023-01-25T11:01:14.231Z,27.03
2023-01-25T11:03:46.329Z,28.53
2023-01-25T11:06:13.279Z,26.23
2023-01-25T11:08:43.123Z,25.80
2023-01-25T11:11:36.592Z,27.53
2023-01-25T11:14:16.375Z,28.23
2023-01-25T11:16:47.989Z,25.37
2023-01-25T11:19:35.723Z,26.97
2023-01-25T11:22:19.057Z,27.47
2023-01-25T11:24:46.511Z,26.87
2023-01-25T11:27:24.941Z,27.23
2023-01-25T11:30:15.966Z,26.70
2023-01-25T11:32:43.008Z,25.37
2023-01-25T11:35:21.016Z,26.33
2023-01-25T11:37:56.916Z,27.83
2023-01-25T11:40:41.750Z,24.63
2023-01-25T11:43:11.492Z,27.37
2023-01-25T11:45:46.532Z,29.80
2023-01-25T11:48:33.404Z,26.30
2023-01-25T11:51:08.945Z,29.50
2023-01-25T11:53:51.263Z,29.63
2023-01-25T11:56:42.663Z,28.80
2023-01-25T11:59:15.087Z,28.30
2023-01-25T12:01:48.085Z,29.57
2023-01-25T12:04:39.571Z,27.27
2023-01-25T12:07:14.061Z,29.73
2023-01-25T12:10:34.922Z,26.87
2023-01-25T12:13:22.139Z,28.10
2023-01-25T12:16:06.201Z,30.10
2023-01-25T12:18:47.349Z,30.27
2023-01-25T12:21:26.367Z,31.30
2023-01-25T12:24:17.160Z,28.70
2023-01-25T12:27:07.688Z,30.67
2023-01-25T12:29:44.691Z,31.87
2023-01-25T12:32:19.216Z,29.93
2023-01-25T12:35:04.030Z,30.73
2023-01-25T12:37:39.694Z,31.03
2023-01-25T12:40:14.698Z,31.47
2023-01-25T12:42:52.131Z,32.10
2023-01-25T12:45:31.647Z,32.43
2023-01-25T12:48:13.964Z,31.77
2023-01-25T12:50:45.275Z,32.60
2023-01-25T12:53:23.334Z,31.23
2023-01-25T12:55:50.729Z,33.03
2023-01-25T12:58:37.450Z,31.57
2023-01-25T13:01:26.500Z,34.77
2023-01-25T13:04:20.125Z,33.77
2023-01-25T13:07:10.248Z,32.30
2023-01-25T13:10:10.540Z,29.63
2023-01-25T13:12:55.852Z,29.13
2023-01-25T13:15:40.357Z,30.40
2023-01-25T13:18:36.666Z,31.10
2023-01-25T13:21:11.488Z,30.87
2023-01-25T13:23:44.124Z,29.80
2023-01-25T13:26:26.214Z,32.07
2023-01-25T13:28:54.908Z,31.17
2023-01-25T13:31:51.667Z,32.40
2023-01-25T13:34:39.033Z,34.67
2023-01-25T13:37:31.104Z,30.30
2023-01-25T13:40:29.345Z,31.80
2023-01-25T13:43:13.239Z,31.77
2023-01-25T13:45:41.613Z,31.40
2023-01-25T13:48:21.978Z,33.57
2023-01-25T13:51:16.541Z,29.07
2023-01-25T13:53:55.726Z,31.93
2023-01-25T13:56:34.248Z,28.97
2023-01-25T13:59:01.501Z,30.10
2023-01-25T14:01:31.910Z,29.50
2023-01-25T14:04:04.576Z,27.53
2023-01-25T14:06:40.500Z,31.70
2023-01-25T14:09:17.200Z,28.73
2023-01-25T14:12:04.298Z,28.90
2023-01-25T14:14:34.284Z,30.60
2023-01-25T14:17:16.854Z,31.17
2023-01-25T14:19:48.763Z,30.47
2023-01-25T14:22:32.349Z,31.90
2023-01-25T14:25:12.757Z,30.20
2023-01-25T14:27:50.965Z,31.07
2023-01-25T14:30:30.596Z,31.87
2023-01-25T14:33:19.322Z,31.53
2023-01-25T14:35:55.630Z,31.03
2023-01-25T14:38:25.273Z,30.80
2023-01-25T14:40:59.294Z,31.93
2023-01-25T14:43:26.833Z,30.27
2023-01-25T14:45:54.001Z,32.07
2023-01-25T14:48:42.097Z,33.83
2023-01-25T14:51:14.286Z,30.60
2023-01-25T14:53:44.626Z,31.83
2023-01-25T14:56:39.541Z,29.87
2023-01-25T14:59:07.236Z,32.67
2023-01-25T15:01:41.128Z,33.67
2023-01-25T15:04:12.929Z,31.63
2023-01-25T15:06:50.796Z,31.13
2023-01-25T15:09:42.983Z,30.57
2023-01-25T15:12:41.999Z,32.93
2023-01-25T15:15:20.995Z,32.57
2023-01-25T15:17:50.845Z,35.17
2023-01-25T15:20:28.242Z,33.03
2023-01-25T15:22:57.167Z,34.47
2023-01-25T15:25:24.698Z,32.63
2023-01-25T15:27:51.920Z,33.70
2023-01-25T15:30:19.269Z,34.73
2023-01-25T15:32:46.611Z,35.13
2023-01-25T15:35:21.642Z,35.77
2023-01-25T15:37:49.498Z,32.13
2023-01-25T15:40:17.124Z,31.20
2023-01-25T15:42:44.031Z,36.63
2023-01-25T15:45:11.210Z,33.57
2023-01-25T15:47:38.718Z,32.23
2023-01-25T15:50:06.470Z,34.27
2023-01-25T15:52:33.238Z,32.53
2023-01-25T15:55:02.105Z,31.77
2023-01-25T15:57:34.547Z,32.50
2023-01-25T16:00:02.433Z,33.30
2023-01-25T16:02:29.384Z,32.30
2023-01-25T16:04:56.170Z,32.37
2023-01-25T16:07:29.077Z,30.77
2023-01-25T16:09:55.816Z,31.50
2023-01-25T16:12:22.757Z,31.97
2023-01-25T16:14:49.527Z,31.93
2023-01-25T16:17:19.106Z,33.80
2023-01-25T16:19:47.822Z,32.37
2023-01-25T16:22:18.634Z,32.37
2023-01-25T16:24:45.969Z,34.07
2023-01-25T16:27:22.700Z,32.77
2023-01-25T16:29:49.525Z,32.93
2023-01-25T16:32:16.374Z,32.97
2023-01-25T16:34:43.126Z,36.17
2023-01-25T16:37:17.270Z,34.97
2023-01-25T16:39:44.527Z,35.73
2023-01-25T16:42:11.707Z,34.77
2023-01-25T16:44:38.976Z,32.77
2023-01-25T16:47:05.862Z,34.40
2023-01-25T16:49:33.479Z,32.07
2023-01-25T16:52:02.859Z,33.23
2023-01-25T16:54:29.673Z,29.70
2023-01-25T16:56:56.786Z,30.33
2023-01-25T16:59:24.624Z,32.23
2023-01-25T17:01:51.989Z,31.90
2023-01-25T17:04:19.176Z,30.70
2023-01-25T17:06:49.325Z,31.53
2023-01-25T17:09:24.826Z,30.60
2023-01-25T17:11:55.354Z,31.40
2023-01-25T17:14:22.419Z,30.63
2023-01-25T17:16:51.529Z,30.10
2023-01-25T17:19:19.460Z,29.47
2023-01-25T17:21:46.573Z,28.00
2023-01-25T17:24:16.488Z,28.80
2023-01-25T17:26:43.277Z,30.07
2023-01-25T17:29:10.432Z,29.50
2023-01-25T17:31:37.606Z,29.17
2023-01-25T17:34:07.179Z,27.83
2023-01-25T17:36:34.113Z,28.53
2023-01-25T17:39:08.309Z,26.90
2023-01-25T17:41:35.196Z,27.20
2023-01-25T17:44:02.641Z,28.10
2023-01-25T17:46:35.093Z,29.20
2023-01-25T17:49:03.238Z,27.73
2023-01-25T17:51:31.460Z,28.63
2023-01-25T17:53:58.391Z,29.10
2023-01-25T17:56:25.904Z,29.47
2023-01-25T17:58:53.156Z,29.03
2023-01-25T18:01:25.713Z,27.73
2023-01-25T18:03:53.891Z,28.33
2023-01-25T18:06:24.950Z,30.93
2023-01-25T18:08:54.208Z,27.90
2023-01-25T18:11:24.769Z,29.37
2023-01-25T18:13:57.830Z,28.23
2023-01-25T18:16:26.903Z,28.63
2023-01-25T18:18:55.574Z,28.27
2023-01-25T18:21:25.456Z,27.00
2023-01-25T18:23:55.268Z,28.87
2023-01-25T18:26:27.920Z,28.80
2023-01-25T18:28:59.555Z,29.27
2023-01-25T18:31:26.637Z,29.20
2023-01-25T18:33:53.473Z,29.60
2023-01-25T18:36:20.510Z,29.47
2023-01-25T18:38:47.255Z,28.77
2023-01-25T18:41:14.041Z,30.80
2023-01-25T18:43:40.869Z,29.47
2023-01-25T18:46:07.857Z,25.73
2023-01-25T18:48:34.707Z,27.80
2023-01-25T18:51:07.987Z,28.87
2023-01-25T18:53:36.363Z,27.30
2023-01-25T18:56:07.845Z,29.67
2023-01-25T18:58:36.409Z,27.77
2023-01-25T19:01:20.933Z,28.00
2023-01-25T19:03:49.617Z,28.23
2023-01-25T19:06:17.150Z,28.97
2023-01-25T19:08:46.507Z,28.57
2023-01-25T19:11:19.908Z,31.50
2023-01-25T19:13:46.756Z,33.53
2023-01-25T19:16:19.629Z,31.17
2023-01-25T19:18:49.902Z,32.97
2023-01-25T19:21:19.987Z,32.27
2023-01-25T19:23:47.379Z,31.93
2023-01-25T19:26:17.230Z,31.37
2023-01-25T19:28:44.526Z,31.83
2023-01-25T19:31:15.994Z,30.87
2023-01-25T19:33:43.543Z,30.77
2023-01-25T19:36:16.754Z,30.40
2023-01-25T19:38:44.375Z,32.03
2023-01-25T19:41:13.242Z,28.47
2023-01-25T19:43:43.748Z,29.97
2023-01-25T19:46:14.830Z,31.40
2023-01-25T19:48:42.487Z,30.33
2023-01-25T19:51:15.154Z,31.43
2023-01-25T19:53:47.482Z,31.27
2023-01-25T19:56:16.279Z,31.40
2023-01-25T19:58:47.432Z,31.20
2023-01-25T20:01:16.664Z,33.20
2023-01-25T20:03:44.021Z,32.90
2023-01-25T20:06:12.207Z,32.17
2023-01-25T20:08:41.052Z,34.70
2023-01-25T20:11:17.534Z,32.63
2023-01-25T20:13:44.296Z,32.93
2023-01-25T20:16:12.613Z,31.47
2023-01-25T20:18:40.038Z,33.10
2023-01-25T20:21:19.356Z,32.73
2023-01-25T20:23:48.919Z,35.70
2023-01-25T20:26:18.351Z,33.80
2023-01-25T20:28:47.534Z,34.83
2023-01-25T20:31:35.003Z,32.80
2023-01-25T20:34:07.687Z,34.80
2023-01-25T20:36:35.866Z,33.13
2023-01-25T20:39:03.005Z,34.63
2023-01-25T20:41:29.772Z,37.00
2023-01-25T20:44:02.037Z,34.87
2023-01-25T20:46:33.659Z,36.73
2023-01-25T20:49:04.030Z,36.13
2023-01-25T20:51:30.874Z,36.43
2023-01-25T20:54:00.044Z,38.30
2023-01-25T20:56:27.116Z,36.33
2023-01-25T20:58:54.978Z,36.30
2023-01-25T21:01:29.525Z,37.23
2023-01-25T21:03:57.857Z,36.67
2023-01-25T21:06:26.254Z,35.40
2023-01-25T21:08:53.115Z,36.17
2023-01-25T21:11:20.399Z,34.67
2023-01-25T21:13:48.155Z,33.07
2023-01-25T21:16:21.683Z,34.93
2023-01-25T21:18:57.697Z,32.67
2023-01-25T21:21:29.237Z,30.97
2023-01-25T21:23:59.677Z,33.30
2023-01-25T21:26:29.544Z,35.20
2023-01-25T21:28:58.134Z,33.37
2023-01-25T21:31:30.831Z,33.37
2023-01-25T21:33:57.635Z,33.63
2023-01-25T21:36:25.279Z,33.03
2023-01-25T21:38:53.888Z,35.50
2023-01-25T21:41:24.428Z,34.93
2023-01-25T21:44:11.847Z,32.17
2023-01-25T21:46:39.257Z,33.67
2023-01-25T21:49:26.706Z,31.33
2023-01-25T21:51:55.917Z,31.70
2023-01-25T21:54:27.176Z,32.30
2023-01-25T21:56:56.483Z,30.40
2023-01-25T21:59:23.971Z,33.03
2023-01-25T22:01:51.564Z,30.37
2023-01-25T22:04:20.319Z,29.37
2023-01-25T22:06:54.512Z,30.93
2023-01-25T22:09:22.723Z,30.90
2023-01-25T22:11:50.831Z,32.00
2023-01-25T22:14:24.425Z,32.07
2023-01-25T22:16:52.045Z,30.53
2023-01-25T22:19:19.291Z,29.67
2023-01-25T22:21:46.114Z,29.93
2023-01-25T22:24:13.592Z,29.73
2023-01-25T22:26:43.405Z,29.30
2023-01-25T22:29:10.223Z,28.37
2023-01-25T22:31:37.145Z,29.87
2023-01-25T22:34:04.348Z,30.03
2023-01-25T22:36:31.777Z,26.93
2023-01-25T22:39:00.329Z,27.33
2023-01-25T22:41:30.658Z,28.50
2023-01-25T22:43:57.969Z,28.20
2023-01-25T22:46:27.638Z,27.40
2023-01-25T22:48:54.983Z,28.30
2023-01-25T22:51:29.558Z,26.90
2023-01-25T22:53:57.700Z,29.03
2023-01-25T22:56:34.144Z,26.63
2023-01-25T22:59:01.481Z,27.53
2023-01-25T23:01:33.669Z,27.70
2023-01-25T23:04:01.816Z,27.30
2023-01-25T23:06:30.490Z,25.43
2023-01-25T23:09:00.053Z,26.97
2023-01-25T23:11:32.176Z,25.73
2023-01-25T23:14:18.635Z,25.23
2023-01-25T23:16:45.904Z,24.17
2023-01-25T23:19:12.859Z,26.00
2023-01-25T23:21:39.701Z,24.40
2023-01-25T23:24:06.957Z,26.13
2023-01-25T23:26:39.019Z,24.97
2023-01-25T23:29:09.133Z,25.20
2023-01-25T23:31:36.682Z,26.87
2023-01-25T23:34:05.319Z,26.53
2023-01-25T23:36:34.901Z,23.37
2023-01-25T23:39:02.702Z,25.97
2023-01-25T23:41:30.274Z,24.77
2023-01-25T23:43:58.023Z,25.63
2023-01-25T23:46:25.307Z,22.57
2023-01-25T23:48:52.303Z,25.07
2023-01-25T23:51:19.829Z,22.10
2023-01-25T23:53:47.421Z,22.87
2023-01-25T23:56:20.167Z,27.23
2023-01-25T23:58:48.038Z,23.83
